createdAt,value
2022-09-18T05:03:41.879Z,68.50
2022-09-18T05:08:47.245Z,68.60
2022-09-18T05:13:52.830Z,68.60
2022-09-18T05:18:57.880Z,68.80
2022-09-18T05:24:01.518Z,68.70
2022-09-18T05:29:05.213Z,68.80
2022-09-18T05:34:10.391Z,68.80
2022-09-18T05:39:17.718Z,68.90
2022-09-18T05:44:21.733Z,68.90
2022-09-18T05:49:27.075Z,69.10
2022-09-18T05:54:32.013Z,69.10
2022-09-18T05:59:35.635Z,69.10
2022-09-18T06:04:41.186Z,69.10
2022-09-18T06:09:45.544Z,69.10
2022-09-18T06:14:49.134Z,69.10
2022-09-18T06:19:54.383Z,69.10
2022-09-18T06:24:58.032Z,69.10
2022-09-18T06:30:04.085Z,69.00
2022-09-18T06:35:10.931Z,69.10
2022-09-18T06:40:14.720Z,69.10
2022-09-18T06:45:18.992Z,69.10
2022-09-18T06:50:26.333Z,69.10
2022-09-18T06:55:29.916Z,69.10
2022-09-18T07:00:33.728Z,69.20
2022-09-18T07:05:42.444Z,69.20
2022-09-18T07:10:46.998Z,69.10
2022-09-18T07:15:50.618Z,69.00
2022-09-18T07:20:55.683Z,69.10
2022-09-18T07:26:04.779Z,69.20
2022-09-18T07:31:09.260Z,69.10
2022-09-18T07:36:14.270Z,69.00
2022-09-18T07:41:18.067Z,68.90
2022-09-18T07:46:21.819Z,69.20
2022-09-18T07:51:27.295Z,69.40
2022-09-18T07:56:30.995Z,69.20
2022-09-18T08:01:35.718Z,69.20
2022-09-18T08:06:42.318Z,69.00
2022-09-18T08:11:46.598Z,69.10
2022-09-18T08:16:52.051Z,69.00
2022-09-18T08:21:57.777Z,68.70
2022-09-18T08:27:03.580Z,68.30
2022-09-18T08:32:09.844Z,67.90
2022-09-18T08:37:15.485Z,67.70
2022-09-18T08:42:27.324Z,67.30
2022-09-18T08:47:38.662Z,66.70
2022-09-18T08:52:50.178Z,65.80
2022-09-18T08:58:00.349Z,64.70
2022-09-18T09:03:16.196Z,63.60
2022-09-18T09:08:56.848Z,62.50
2022-09-18T09:14:16.191Z,61.00
2022-09-18T09:19:31.347Z,59.90
2022-09-18T09:24:43.743Z,58.40
2022-09-18T09:30:00.891Z,57.50
2022-09-18T09:35:20.442Z,56.20
2022-09-18T09:40:44.474Z,54.70
2022-09-18T09:45:52.477Z,53.30
2022-09-18T09:51:02.423Z,52.80
2022-09-18T09:56:16.959Z,52.20
2022-09-18T10:01:26.562Z,51.10
2022-09-18T10:06:40.198Z,51.00
2022-09-18T10:11:57.124Z,50.00
2022-09-18T10:17:05.272Z,49.10
2022-09-18T10:22:13.991Z,48.60
2022-09-18T10:27:20.964Z,48.10
2022-09-18T10:32:35.314Z,48.30
2022-09-18T10:37:39.708Z,47.10
2022-09-18T10:42:46.063Z,47.10
2022-09-18T10:47:50.976Z,47.00
2022-09-18T10:52:55.045Z,47.00
2022-09-18T10:58:14.615Z,46.90
2022-09-18T11:03:26.689Z,46.30
2022-09-18T11:08:35.663Z,46.20
2022-09-18T11:13:45.915Z,46.00
2022-09-18T11:19:07.729Z,45.60
2022-09-18T11:24:23.650Z,44.60
2022-09-18T11:29:32.832Z,44.10
2022-09-18T11:34:40.019Z,43.90
2022-09-18T11:39:57.371Z,43.80
2022-09-18T11:45:21.068Z,43.50
2022-09-18T11:50:30.466Z,43.60
2022-09-18T11:55:39.222Z,43.40
2022-09-18T12:00:51.027Z,42.70
2022-09-18T12:05:59.694Z,42.10
2022-09-18T12:11:13.781Z,41.90
2022-09-18T12:16:23.748Z,41.50
2022-09-18T12:21:37.586Z,41.30
2022-09-18T12:26:55.743Z,41.30
2022-09-18T12:32:13.506Z,41.00
2022-09-18T12:37:31.540Z,40.70
2022-09-18T12:42:49.636Z,40.30
2022-09-18T12:48:15.114Z,39.90
2022-09-18T12:53:29.325Z,39.60
2022-09-18T12:59:11.592Z,38.90
2022-09-18T13:04:23.621Z,38.30
2022-09-18T13:09:32.231Z,38.80
2022-09-18T13:14:41.224Z,38.80
2022-09-18T13:19:53.271Z,38.60
2022-09-18T13:24:58.463Z,38.50
2022-09-18T13:30:15.763Z,38.60
2022-09-18T13:35:24.991Z,38.00
2022-09-18T13:40:35.874Z,37.90
2022-09-18T13:45:40.608Z,37.50
2022-09-18T13:50:54.358Z,37.40
2022-09-18T13:55:58.249Z,37.20
2022-09-18T14:01:03.149Z,37.30
2022-09-18T14:06:46.630Z,37.20
2022-09-18T14:11:50.309Z,36.60
2022-09-18T14:16:55.607Z,36.60
2022-09-18T14:22:02.838Z,36.50
2022-09-18T14:27:42.493Z,36.50
2022-09-18T14:33:04.357Z,36.20
2022-09-18T14:38:25.726Z,36.50
2022-09-18T14:43:29.245Z,36.70
2022-09-18T14:48:37.804Z,37.10
2022-09-18T14:53:45.865Z,37.30
2022-09-18T14:58:50.500Z,37.70
2022-09-18T15:03:55.651Z,38.10
2022-09-18T15:09:00.865Z,38.50
2022-09-18T15:14:20.959Z,38.80
2022-09-18T15:19:25.045Z,39.00
2022-09-18T15:24:31.313Z,39.40
2022-09-18T15:29:49.424Z,39.80
2022-09-18T15:34:54.903Z,40.20
2022-09-18T15:40:07.126Z,40.60
2022-09-18T15:45:19.559Z,41.10
2022-09-18T15:50:39.216Z,41.40
2022-09-18T15:55:57.066Z,41.60
2022-09-18T16:01:03.300Z,42.00
2022-09-18T16:06:08.620Z,42.20
2022-09-18T16:11:38.995Z,42.30
2022-09-18T16:16:42.785Z,42.50
2022-09-18T16:21:46.427Z,42.70
2022-09-18T16:26:51.356Z,42.80
2022-09-18T16:31:55.097Z,43.10
2022-09-18T16:37:01.989Z,43.70
2022-09-18T16:42:17.123Z,43.70
2022-09-18T16:47:20.733Z,43.90
2022-09-18T16:52:24.363Z,44.10
2022-09-18T16:57:30.472Z,44.20
2022-09-18T17:02:34.934Z,44.50
2022-09-18T17:07:38.326Z,44.70
2022-09-18T17:12:43.448Z,44.80
2022-09-18T17:17:46.986Z,44.90
2022-09-18T17:22:51.451Z,45.10
2022-09-18T17:27:57.956Z,45.40
2022-09-18T17:33:02.716Z,45.80
2022-09-18T17:38:06.435Z,46.20
2022-09-18T17:43:12.104Z,46.60
2022-09-18T17:48:16.141Z,46.90
2022-09-18T17:53:20.460Z,47.40
2022-09-18T17:58:25.609Z,48.20
2022-09-18T18:03:30.511Z,47.90
2022-09-18T18:08:34.924Z,48.40
2022-09-18T18:13:42.220Z,48.70
2022-09-18T18:18:45.765Z,49.10
2022-09-18T18:23:50.244Z,49.60
2022-09-18T18:28:57.860Z,50.00
2022-09-18T18:34:01.436Z,50.30
2022-09-18T18:39:09.917Z,50.60
2022-09-18T18:44:18.558Z,50.90
2022-09-18T18:49:24.938Z,51.20
2022-09-18T18:54:55.547Z,51.50
2022-09-18T19:00:20.838Z,51.80
2022-09-18T19:05:31.404Z,52.20
2022-09-18T19:10:42.264Z,52.50
2022-09-18T19:15:53.866Z,52.80
2022-09-18T19:21:10.001Z,53.10
2022-09-18T19:26:22.043Z,53.60
2022-09-18T19:31:39.759Z,53.90
2022-09-18T19:36:50.845Z,54.30
2022-09-18T19:42:05.993Z,54.30
2022-09-18T19:47:22.951Z,54.30
2022-09-18T19:52:43.780Z,54.80
2022-09-18T19:57:57.708Z,55.00
2022-09-18T20:03:16.293Z,55.40
2022-09-18T20:08:22.754Z,55.70
2022-09-18T20:13:29.643Z,56.00
2022-09-18T20:18:38.723Z,56.20
2022-09-18T20:23:44.822Z,56.40
2022-09-18T20:28:50.150Z,56.70
2022-09-18T20:34:03.053Z,56.90
2022-09-18T20:39:07.704Z,57.30
2022-09-18T20:44:11.752Z,57.50
2022-09-18T20:49:17.484Z,57.80
2022-09-18T20:54:24.434Z,58.20
2022-09-18T20:59:28.164Z,58.50
2022-09-18T21:04:33.195Z,58.80
2022-09-18T21:09:36.701Z,59.00
2022-09-18T21:14:40.394Z,59.40
2022-09-18T21:19:48.573Z,59.70
2022-09-18T21:24:53.882Z,59.90
2022-09-18T21:29:59.093Z,60.10
2022-09-18T21:35:04.267Z,60.30
2022-09-18T21:40:08.607Z,60.60
2022-09-18T21:45:20.699Z,60.90
2022-09-18T21:50:26.086Z,61.10
2022-09-18T21:55:31.287Z,61.40
2022-09-18T22:00:34.974Z,61.70
2022-09-18T22:05:39.898Z,62.00
2022-09-18T22:10:43.775Z,62.20
2022-09-18T22:15:47.288Z,62.40
2022-09-18T22:20:52.178Z,62.70
2022-09-18T22:25:58.979Z,63.00
